sensor_id;sensor_type;location;lat;lon;timestamp;temperature;humidity
13336;DHT22;6737;51.480;11.962;2023-04-06T00:01:39;1.30;99.90
13336;DHT22;6737;51.480;11.962;2023-04-06T00:04:05;1.20;99.90
13336;DHT22;6737;51.480;11.962;2023-04-06T00:06:32;1.20;99.90
13336;DHT22;6737;51.480;11.962;2023-04-06T00:08:58;1.10;99.90
13336;DHT22;6737;51.480;11.962;2023-04-06T00:11:24;1.10;99.90
13336;DHT22;6737;51.480;11.962;2023-04-06T00:13:50;1.10;99.90
13336;DHT22;6737;51.480;11.962;2023-04-06T00:16:16;1.00;99.90
13336;DHT22;6737;51.480;11.962;2023-04-06T00:18:42;1.10;99.90
13336;DHT22;6737;51.480;11.962;2023-04-06T00:21:10;1.10;99.90
13336;DHT22;6737;51.480;11.962;2023-04-06T00:23:37;1.10;99.90
13336;DHT22;6737;51.480;11.962;2023-04-06T00:26:02;1.10;99.90
13336;DHT22;6737;51.480;11.962;2023-04-06T00:28:28;1.10;99.90
13336;DHT22;6737;51.480;11.962;2023-04-06T00:30:55;1.10;99.90
13336;DHT22;6737;51.480;11.962;2023-04-06T00:33:22;1.20;99.90
13336;DHT22;6737;51.480;11.962;2023-04-06T00:35:48;1.20;99.90
13336;DHT22;6737;51.480;11.962;2023-04-06T00:38:14;1.30;99.90
13336;DHT22;6737;51.480;11.962;2023-04-06T00:40:41;1.30;99.90
13336;DHT22;6737;51.480;11.962;2023-04-06T00:43:07;1.30;99.90
13336;DHT22;6737;51.480;11.962;2023-04-06T00:45:34;1.30;99.90
13336;DHT22;6737;51.480;11.962;2023-04-06T00:48:01;1.20;99.90
13336;DHT22;6737;51.480;11.962;2023-04-06T00:50:27;1.20;99.90
13336;DHT22;6737;51.480;11.962;2023-04-06T00:52:54;1.20;99.90
13336;DHT22;6737;51.480;11.962;2023-04-06T00:55:21;1.30;99.90
13336;DHT22;6737;51.480;11.962;2023-04-06T00:57:46;1.30;99.90
13336;DHT22;6737;51.480;11.962;2023-04-06T01:00:13;1.30;99.90
13336;DHT22;6737;51.480;11.962;2023-04-06T01:02:39;1.20;99.90
13336;DHT22;6737;51.480;11.962;2023-04-06T01:05:05;1.10;99.90
13336;DHT22;6737;51.480;11.962;2023-04-06T01:07:31;1.10;99.90
13336;DHT22;6737;51.480;11.962;2023-04-06T01:09:58;1.10;99.90
13336;DHT22;6737;51.480;11.962;2023-04-06T01:12:24;1.10;99.90
13336;DHT22;6737;51.480;11.962;2023-04-06T01:14:50;1.20;99.90
13336;DHT22;6737;51.480;11.962;2023-04-06T01:17:16;1.20;99.90
13336;DHT22;6737;51.480;11.962;2023-04-06T01:19:42;1.30;99.90
13336;DHT22;6737;51.480;11.962;2023-04-06T01:22:08;1.20;99.90
13336;DHT22;6737;51.480;11.962;2023-04-06T01:24:34;1.30;99.90
13336;DHT22;6737;51.480;11.962;2023-04-06T01:27:00;1.30;99.90
13336;DHT22;6737;51.480;11.962;2023-04-06T01:29:26;1.20;99.90
13336;DHT22;6737;51.480;11.962;2023-04-06T01:31:52;1.20;99.90
13336;DHT22;6737;51.480;11.962;2023-04-06T01:34:18;1.20;99.90
13336;DHT22;6737;51.480;11.962;2023-04-06T01:36:44;1.20;99.90
13336;DHT22;6737;51.480;11.962;2023-04-06T01:39:10;1.20;99.90
13336;DHT22;6737;51.480;11.962;2023-04-06T01:41:36;1.20;99.90
13336;DHT22;6737;51.480;11.962;2023-04-06T01:44:02;1.20;99.90
13336;DHT22;6737;51.480;11.962;2023-04-06T01:46:28;1.20;99.90
13336;DHT22;6737;51.480;11.962;2023-04-06T01:48:54;1.20;99.90
13336;DHT22;6737;51.480;11.962;2023-04-06T01:51:20;1.20;99.90
13336;DHT22;6737;51.480;11.962;2023-04-06T01:53:45;1.10;99.90
13336;DHT22;6737;51.480;11.962;2023-04-06T01:56:11;1.00;99.90
13336;DHT22;6737;51.480;11.962;2023-04-06T01:58:37;1.00;99.90
13336;DHT22;6737;51.480;11.962;2023-04-06T02:01:03;1.00;99.90
13336;DHT22;6737;51.480;11.962;2023-04-06T02:03:29;1.00;99.90
13336;DHT22;6737;51.480;11.962;2023-04-06T02:05:56;1.00;99.90
13336;DHT22;6737;51.480;11.962;2023-04-06T02:08:22;0.90;99.90
13336;DHT22;6737;51.480;11.962;2023-04-06T02:10:47;0.90;99.90
13336;DHT22;6737;51.480;11.962;2023-04-06T02:13:13;1.00;99.90
13336;DHT22;6737;51.480;11.962;2023-04-06T02:15:39;0.90;99.90
13336;DHT22;6737;51.480;11.962;2023-04-06T02:18:05;0.90;99.90
13336;DHT22;6737;51.480;11.962;2023-04-06T02:20:31;1.00;99.90
13336;DHT22;6737;51.480;11.962;2023-04-06T02:22:59;0.90;99.90
13336;DHT22;6737;51.480;11.962;2023-04-06T02:25:26;0.90;99.90
13336;DHT22;6737;51.480;11.962;2023-04-06T02:27:52;0.90;99.90
13336;DHT22;6737;51.480;11.962;2023-04-06T02:30:18;0.70;99.90
13336;DHT22;6737;51.480;11.962;2023-04-06T02:32:43;0.50;99.90
13336;DHT22;6737;51.480;11.962;2023-04-06T02:35:09;0.50;99.90
13336;DHT22;6737;51.480;11.962;2023-04-06T02:37:35;0.60;99.90
13336;DHT22;6737;51.480;11.962;2023-04-06T02:40:01;0.60;99.90
13336;DHT22;6737;51.480;11.962;2023-04-06T02:42:27;0.70;99.90
13336;DHT22;6737;51.480;11.962;2023-04-06T02:44:52;0.70;99.90
13336;DHT22;6737;51.480;11.962;2023-04-06T02:47:18;0.70;99.90
13336;DHT22;6737;51.480;11.962;2023-04-06T02:49:44;0.60;99.90
13336;DHT22;6737;51.480;11.962;2023-04-06T02:52:10;0.70;99.90
13336;DHT22;6737;51.480;11.962;2023-04-06T02:54:36;0.60;99.90
13336;DHT22;6737;51.480;11.962;2023-04-06T02:57:01;0.70;99.90
13336;DHT22;6737;51.480;11.962;2023-04-06T02:59:27;0.70;99.90
13336;DHT22;6737;51.480;11.962;2023-04-06T03:01:53;0.50;99.90
13336;DHT22;6737;51.480;11.962;2023-04-06T03:04:19;0.50;99.90
13336;DHT22;6737;51.480;11.962;2023-04-06T03:06:45;0.50;99.90
13336;DHT22;6737;51.480;11.962;2023-04-06T03:09:10;0.50;99.90
13336;DHT22;6737;51.480;11.962;2023-04-06T03:11:36;0.40;99.90
13336;DHT22;6737;51.480;11.962;2023-04-06T03:14:02;0.30;99.90
13336;DHT22;6737;51.480;11.962;2023-04-06T03:16:28;0.40;99.90
13336;DHT22;6737;51.480;11.962;2023-04-06T03:18:54;0.40;99.90
13336;DHT22;6737;51.480;11.962;2023-04-06T03:21:19;0.40;99.90
13336;DHT22;6737;51.480;11.962;2023-04-06T03:23:45;0.50;99.90
13336;DHT22;6737;51.480;11.962;2023-04-06T03:26:11;0.50;99.90
13336;DHT22;6737;51.480;11.962;2023-04-06T03:28:37;0.60;99.90
13336;DHT22;6737;51.480;11.962;2023-04-06T03:31:03;0.60;99.90
13336;DHT22;6737;51.480;11.962;2023-04-06T03:33:29;0.60;99.90
13336;DHT22;6737;51.480;11.962;2023-04-06T03:35:54;0.60;99.90
13336;DHT22;6737;51.480;11.962;2023-04-06T03:38:21;0.60;99.90
13336;DHT22;6737;51.480;11.962;2023-04-06T03:40:46;0.40;99.90
13336;DHT22;6737;51.480;11.962;2023-04-06T03:43:12;0.40;99.90
13336;DHT22;6737;51.480;11.962;2023-04-06T03:45:38;0.40;99.90
13336;DHT22;6737;51.480;11.962;2023-04-06T03:48:04;0.50;99.90
13336;DHT22;6737;51.480;11.962;2023-04-06T03:50:30;0.40;99.90
13336;DHT22;6737;51.480;11.962;2023-04-06T03:52:56;0.40;99.90
13336;DHT22;6737;51.480;11.962;2023-04-06T03:55:22;0.40;99.90
13336;DHT22;6737;51.480;11.962;2023-04-06T03:57:48;0.40;99.90
13336;DHT22;6737;51.480;11.962;2023-04-06T04:00:14;0.50;99.90
13336;DHT22;6737;51.480;11.962;2023-04-06T04:02:40;0.30;99.90
13336;DHT22;6737;51.480;11.962;2023-04-06T04:05:06;0.20;99.90
13336;DHT22;6737;51.480;11.962;2023-04-06T04:07:32;0.20;99.90
13336;DHT22;6737;51.480;11.962;2023-04-06T04:09:58;0.20;99.90
13336;DHT22;6737;51.480;11.962;2023-04-06T04:12:24;0.10;99.90
13336;DHT22;6737;51.480;11.962;2023-04-06T04:14:50;0.10;99.90
13336;DHT22;6737;51.480;11.962;2023-04-06T04:17:15;0.00;99.90
13336;DHT22;6737;51.480;11.962;2023-04-06T04:19:41;0.00;99.90
13336;DHT22;6737;51.480;11.962;2023-04-06T04:22:08;0.10;99.90
13336;DHT22;6737;51.480;11.962;2023-04-06T04:24:34;0.00;99.90
13336;DHT22;6737;51.480;11.962;2023-04-06T04:27:00;0.10;99.90
13336;DHT22;6737;51.480;11.962;2023-04-06T04:29:30;0.00;99.90
13336;DHT22;6737;51.480;11.962;2023-04-06T04:31:56;0.00;99.90
13336;DHT22;6737;51.480;11.962;2023-04-06T04:34:22;0.00;99.90
13336;DHT22;6737;51.480;11.962;2023-04-06T04:36:51;-0.10;99.90
13336;DHT22;6737;51.480;11.962;2023-04-06T04:39:17;0.00;99.90
13336;DHT22;6737;51.480;11.962;2023-04-06T04:41:42;0.00;99.90
13336;DHT22;6737;51.480;11.962;2023-04-06T04:44:08;0.00;99.90
13336;DHT22;6737;51.480;11.962;2023-04-06T04:46:34;0.00;99.90
13336;DHT22;6737;51.480;11.962;2023-04-06T04:49:00;0.00;99.90
13336;DHT22;6737;51.480;11.962;2023-04-06T04:51:26;-0.10;99.90
13336;DHT22;6737;51.480;11.962;2023-04-06T04:53:52;-0.10;99.90
13336;DHT22;6737;51.480;11.962;2023-04-06T04:56:17;0.00;99.90
13336;DHT22;6737;51.480;11.962;2023-04-06T04:58:43;0.00;99.90
13336;DHT22;6737;51.480;11.962;2023-04-06T05:01:09;-0.10;99.90
13336;DHT22;6737;51.480;11.962;2023-04-06T05:03:36;-0.10;99.90
13336;DHT22;6737;51.480;11.962;2023-04-06T05:06:04;-0.10;99.90
13336;DHT22;6737;51.480;11.962;2023-04-06T05:08:31;-0.10;99.90
13336;DHT22;6737;51.480;11.962;2023-04-06T05:10:57;-0.10;99.90
13336;DHT22;6737;51.480;11.962;2023-04-06T05:13:23;0.00;99.90
13336;DHT22;6737;51.480;11.962;2023-04-06T05:15:48;0.00;99.90
13336;DHT22;6737;51.480;11.962;2023-04-06T05:18:15;0.00;99.90
13336;DHT22;6737;51.480;11.962;2023-04-06T05:20:42;0.00;99.90
13336;DHT22;6737;51.480;11.962;2023-04-06T05:23:08;0.10;99.90
13336;DHT22;6737;51.480;11.962;2023-04-06T05:25:33;0.10;99.90
13336;DHT22;6737;51.480;11.962;2023-04-06T05:28:00;0.10;99.90
13336;DHT22;6737;51.480;11.962;2023-04-06T05:30:25;0.10;99.90
13336;DHT22;6737;51.480;11.962;2023-04-06T05:32:51;0.20;99.90
13336;DHT22;6737;51.480;11.962;2023-04-06T05:35:17;0.20;99.90
13336;DHT22;6737;51.480;11.962;2023-04-06T05:37:43;0.20;99.90
13336;DHT22;6737;51.480;11.962;2023-04-06T05:40:09;0.20;99.90
13336;DHT22;6737;51.480;11.962;2023-04-06T05:42:42;0.30;99.90
13336;DHT22;6737;51.480;11.962;2023-04-06T05:45:09;0.30;99.90
13336;DHT22;6737;51.480;11.962;2023-04-06T05:47:36;0.30;99.90
13336;DHT22;6737;51.480;11.962;2023-04-06T05:50:02;0.40;99.90
13336;DHT22;6737;51.480;11.962;2023-04-06T05:52:28;0.40;99.90
13336;DHT22;6737;51.480;11.962;2023-04-06T05:54:54;0.50;99.90
13336;DHT22;6737;51.480;11.962;2023-04-06T05:57:20;0.50;99.90
13336;DHT22;6737;51.480;11.962;2023-04-06T05:59:46;0.60;99.90
13336;DHT22;6737;51.480;11.962;2023-04-06T06:02:12;0.70;99.90
13336;DHT22;6737;51.480;11.962;2023-04-06T06:04:38;0.70;99.90
13336;DHT22;6737;51.480;11.962;2023-04-06T06:07:04;0.70;99.90
13336;DHT22;6737;51.480;11.962;2023-04-06T06:09:31;0.80;99.90
13336;DHT22;6737;51.480;11.962;2023-04-06T06:11:56;0.90;99.90
13336;DHT22;6737;51.480;11.962;2023-04-06T06:14:22;1.00;99.90
13336;DHT22;6737;51.480;11.962;2023-04-06T06:16:48;1.10;99.90
13336;DHT22;6737;51.480;11.962;2023-04-06T06:19:14;1.10;99.90
13336;DHT22;6737;51.480;11.962;2023-04-06T06:21:40;1.30;99.90
13336;DHT22;6737;51.480;11.962;2023-04-06T06:24:06;1.50;99.90
13336;DHT22;6737;51.480;11.962;2023-04-06T06:26:32;1.60;99.90
13336;DHT22;6737;51.480;11.962;2023-04-06T06:28:58;1.70;99.90
13336;DHT22;6737;51.480;11.962;2023-04-06T06:31:24;1.80;99.90
13336;DHT22;6737;51.480;11.962;2023-04-06T06:33:50;1.90;99.90
13336;DHT22;6737;51.480;11.962;2023-04-06T06:36:17;2.00;99.90
13336;DHT22;6737;51.480;11.962;2023-04-06T06:38:44;2.20;99.90
13336;DHT22;6737;51.480;11.962;2023-04-06T06:41:10;2.40;99.90
13336;DHT22;6737;51.480;11.962;2023-04-06T06:43:36;2.50;99.90
13336;DHT22;6737;51.480;11.962;2023-04-06T06:46:02;2.70;99.90
13336;DHT22;6737;51.480;11.962;2023-04-06T06:48:28;2.70;99.90
13336;DHT22;6737;51.480;11.962;2023-04-06T06:50:54;2.80;99.90
13336;DHT22;6737;51.480;11.962;2023-04-06T06:53:20;2.90;99.90
13336;DHT22;6737;51.480;11.962;2023-04-06T06:55:46;3.00;99.90
13336;DHT22;6737;51.480;11.962;2023-04-06T06:58:14;3.10;99.90
13336;DHT22;6737;51.480;11.962;2023-04-06T07:00:40;3.30;99.90
13336;DHT22;6737;51.480;11.962;2023-04-06T07:03:06;3.50;99.90
13336;DHT22;6737;51.480;11.962;2023-04-06T07:05:32;3.70;99.90
13336;DHT22;6737;51.480;11.962;2023-04-06T07:07:58;3.90;99.90
13336;DHT22;6737;51.480;11.962;2023-04-06T07:10:24;4.00;99.90
13336;DHT22;6737;51.480;11.962;2023-04-06T07:12:50;4.20;99.90
13336;DHT22;6737;51.480;11.962;2023-04-06T07:15:16;4.30;99.90
13336;DHT22;6737;51.480;11.962;2023-04-06T07:17:42;4.40;99.90
13336;DHT22;6737;51.480;11.962;2023-04-06T07:20:10;4.50;99.90
13336;DHT22;6737;51.480;11.962;2023-04-06T07:22:41;4.50;99.90
13336;DHT22;6737;51.480;11.962;2023-04-06T07:25:08;4.70;99.90
13336;DHT22;6737;51.480;11.962;2023-04-06T07:27:34;4.80;99.90
13336;DHT22;6737;51.480;11.962;2023-04-06T07:30:00;4.70;99.90
13336;DHT22;6737;51.480;11.962;2023-04-06T07:32:26;4.80;99.90
13336;DHT22;6737;51.480;11.962;2023-04-06T07:34:52;4.90;99.90
13336;DHT22;6737;51.480;11.962;2023-04-06T07:37:17;5.00;99.90
13336;DHT22;6737;51.480;11.962;2023-04-06T07:39:43;5.20;99.90
13336;DHT22;6737;51.480;11.962;2023-04-06T07:42:09;5.20;99.90
13336;DHT22;6737;51.480;11.962;2023-04-06T07:44:35;5.20;99.90
13336;DHT22;6737;51.480;11.962;2023-04-06T07:47:01;5.30;99.90
13336;DHT22;6737;51.480;11.962;2023-04-06T07:49:27;5.30;99.90
13336;DHT22;6737;51.480;11.962;2023-04-06T07:51:54;5.40;99.90
13336;DHT22;6737;51.480;11.962;2023-04-06T07:54:19;5.40;99.90
13336;DHT22;6737;51.480;11.962;2023-04-06T07:56:45;5.50;99.90
13336;DHT22;6737;51.480;11.962;2023-04-06T07:59:11;5.50;99.90
13336;DHT22;6737;51.480;11.962;2023-04-06T08:01:39;5.70;99.90
13336;DHT22;6737;51.480;11.962;2023-04-06T08:04:04;5.70;99.90
13336;DHT22;6737;51.480;11.962;2023-04-06T08:06:31;5.90;99.90
13336;DHT22;6737;51.480;11.962;2023-04-06T08:08:56;6.00;99.90
13336;DHT22;6737;51.480;11.962;2023-04-06T08:11:22;6.10;99.90
13336;DHT22;6737;51.480;11.962;2023-04-06T08:13:48;6.20;99.90
13336;DHT22;6737;51.480;11.962;2023-04-06T08:16:14;6.30;99.90
13336;DHT22;6737;51.480;11.962;2023-04-06T08:18:40;6.30;99.90
13336;DHT22;6737;51.480;11.962;2023-04-06T08:21:06;6.40;99.90
13336;DHT22;6737;51.480;11.962;2023-04-06T08:23:32;6.50;99.90
13336;DHT22;6737;51.480;11.962;2023-04-06T08:25:58;6.60;99.90
13336;DHT22;6737;51.480;11.962;2023-04-06T08:28:23;6.60;99.90
13336;DHT22;6737;51.480;11.962;2023-04-06T08:30:50;6.70;99.90
13336;DHT22;6737;51.480;11.962;2023-04-06T08:33:15;6.80;99.90
13336;DHT22;6737;51.480;11.962;2023-04-06T08:35:41;6.80;99.90
13336;DHT22;6737;51.480;11.962;2023-04-06T08:38:07;6.90;99.90
13336;DHT22;6737;51.480;11.962;2023-04-06T08:40:37;7.00;99.90
13336;DHT22;6737;51.480;11.962;2023-04-06T08:43:03;7.20;99.90
13336;DHT22;6737;51.480;11.962;2023-04-06T08:45:34;7.30;99.90
13336;DHT22;6737;51.480;11.962;2023-04-06T08:48:00;7.40;99.90
13336;DHT22;6737;51.480;11.962;2023-04-06T08:50:29;7.50;99.90
13336;DHT22;6737;51.480;11.962;2023-04-06T08:52:56;7.50;99.90
13336;DHT22;6737;51.480;11.962;2023-04-06T08:55:22;7.60;99.90
13336;DHT22;6737;51.480;11.962;2023-04-06T08:57:48;7.70;99.90
13336;DHT22;6737;51.480;11.962;2023-04-06T09:00:15;7.80;99.90
13336;DHT22;6737;51.480;11.962;2023-04-06T09:02:46;7.80;99.90
13336;DHT22;6737;51.480;11.962;2023-04-06T09:05:13;7.90;99.90
13336;DHT22;6737;51.480;11.962;2023-04-06T09:07:38;7.90;99.90
13336;DHT22;6737;51.480;11.962;2023-04-06T09:10:06;8.00;99.90
13336;DHT22;6737;51.480;11.962;2023-04-06T09:12:32;8.00;99.90
13336;DHT22;6737;51.480;11.962;2023-04-06T09:14:59;8.00;99.90
13336;DHT22;6737;51.480;11.962;2023-04-06T09:17:30;8.10;99.90
13336;DHT22;6737;51.480;11.962;2023-04-06T09:20:01;8.20;99.90
13336;DHT22;6737;51.480;11.962;2023-04-06T09:22:38;8.30;99.90
13336;DHT22;6737;51.480;11.962;2023-04-06T09:25:06;8.40;99.90
13336;DHT22;6737;51.480;11.962;2023-04-06T09:27:33;8.60;99.90
13336;DHT22;6737;51.480;11.962;2023-04-06T09:30:12;8.70;99.90
13336;DHT22;6737;51.480;11.962;2023-04-06T09:32:49;8.80;99.90
13336;DHT22;6737;51.480;11.962;2023-04-06T09:35:16;8.90;99.90
13336;DHT22;6737;51.480;11.962;2023-04-06T09:37:43;9.10;99.90
13336;DHT22;6737;51.480;11.962;2023-04-06T09:40:09;9.20;99.80
13336;DHT22;6737;51.480;11.962;2023-04-06T09:42:35;9.10;99.90
13336;DHT22;6737;51.480;11.962;2023-04-06T09:45:03;9.30;99.90
13336;DHT22;6737;51.480;11.962;2023-04-06T09:47:32;9.40;99.80
13336;DHT22;6737;51.480;11.962;2023-04-06T09:49:59;9.40;99.30
13336;DHT22;6737;51.480;11.962;2023-04-06T09:52:51;9.30;99.90
13336;DHT22;6737;51.480;11.962;2023-04-06T09:55:29;9.50;99.90
13336;DHT22;6737;51.480;11.962;2023-04-06T09:58:05;9.60;99.90
13336;DHT22;6737;51.480;11.962;2023-04-06T10:04:13;9.70;99.50
13336;DHT22;6737;51.480;11.962;2023-04-06T10:06:21;9.70;98.80
13336;DHT22;6737;51.480;11.962;2023-04-06T10:08:47;9.70;99.90
13336;DHT22;6737;51.480;11.962;2023-04-06T10:11:15;9.80;99.90
13336;DHT22;6737;51.480;11.962;2023-04-06T10:13:41;9.80;97.70
13336;DHT22;6737;51.480;11.962;2023-04-06T10:16:08;9.90;99.90
13336;DHT22;6737;51.480;11.962;2023-04-06T10:18:35;9.90;98.90
13336;DHT22;6737;51.480;11.962;2023-04-06T10:26:39;10.10;95.90
13336;DHT22;6737;51.480;11.962;2023-04-06T10:29:06;10.10;96.70
13336;DHT22;6737;51.480;11.962;2023-04-06T10:31:32;10.00;96.70
13336;DHT22;6737;51.480;11.962;2023-04-06T10:34:02;10.10;96.90
13336;DHT22;6737;51.480;11.962;2023-04-06T10:36:32;10.00;95.60
13336;DHT22;6737;51.480;11.962;2023-04-06T10:39:00;10.10;96.00
13336;DHT22;6737;51.480;11.962;2023-04-06T10:41:33;10.30;96.10
13336;DHT22;6737;51.480;11.962;2023-04-06T10:44:00;10.20;93.40
13336;DHT22;6737;51.480;11.962;2023-04-06T10:46:31;10.20;93.10
13336;DHT22;6737;51.480;11.962;2023-04-06T10:48:57;10.20;95.60
13336;DHT22;6737;51.480;11.962;2023-04-06T10:51:28;10.10;93.20
13336;DHT22;6737;51.480;11.962;2023-04-06T10:53:54;10.00;94.20
13336;DHT22;6737;51.480;11.962;2023-04-06T10:56:24;10.10;95.10
13336;DHT22;6737;51.480;11.962;2023-04-06T10:58:54;10.00;94.00
13336;DHT22;6737;51.480;11.962;2023-04-06T11:01:23;10.10;96.30
13336;DHT22;6737;51.480;11.962;2023-04-06T11:03:53;10.20;96.50
13336;DHT22;6737;51.480;11.962;2023-04-06T11:06:27;10.30;94.70
13336;DHT22;6737;51.480;11.962;2023-04-06T11:08:55;10.40;94.00
13336;DHT22;6737;51.480;11.962;2023-04-06T11:11:23;10.60;94.50
13336;DHT22;6737;51.480;11.962;2023-04-06T11:16:24;10.40;93.90
13336;DHT22;6737;51.480;11.962;2023-04-06T11:18:54;10.40;93.60
13336;DHT22;6737;51.480;11.962;2023-04-06T11:21:40;10.50;95.30
13336;DHT22;6737;51.480;11.962;2023-04-06T11:26:43;10.30;93.20
13336;DHT22;6737;51.480;11.962;2023-04-06T11:29:10;10.20;93.40
13336;DHT22;6737;51.480;11.962;2023-04-06T11:31:50;10.30;95.20
13336;DHT22;6737;51.480;11.962;2023-04-06T11:34:21;10.20;93.10
13336;DHT22;6737;51.480;11.962;2023-04-06T11:36:48;10.30;94.60
13336;DHT22;6737;51.480;11.962;2023-04-06T11:39:22;10.30;92.80
13336;DHT22;6737;51.480;11.962;2023-04-06T11:41:53;10.30;93.00
13336;DHT22;6737;51.480;11.962;2023-04-06T11:44:32;10.40;92.60
13336;DHT22;6737;51.480;11.962;2023-04-06T11:46:58;10.40;92.90
13336;DHT22;6737;51.480;11.962;2023-04-06T11:49:28;10.50;92.70
13336;DHT22;6737;51.480;11.962;2023-04-06T11:51:55;10.50;93.60
13336;DHT22;6737;51.480;11.962;2023-04-06T11:54:34;10.50;94.90
13336;DHT22;6737;51.480;11.962;2023-04-06T11:57:04;10.50;93.90
13336;DHT22;6737;51.480;11.962;2023-04-06T11:59:31;10.50;94.20
13336;DHT22;6737;51.480;11.962;2023-04-06T12:01:57;10.60;91.80
13336;DHT22;6737;51.480;11.962;2023-04-06T12:04:23;10.70;91.40
13336;DHT22;6737;51.480;11.962;2023-04-06T12:06:50;10.80;91.40
13336;DHT22;6737;51.480;11.962;2023-04-06T12:09:19;10.80;91.20
13336;DHT22;6737;51.480;11.962;2023-04-06T12:11:45;10.80;91.80
13336;DHT22;6737;51.480;11.962;2023-04-06T12:14:11;10.70;91.60
13336;DHT22;6737;51.480;11.962;2023-04-06T12:16:38;10.70;93.50
13336;DHT22;6737;51.480;11.962;2023-04-06T12:19:04;10.80;92.50
13336;DHT22;6737;51.480;11.962;2023-04-06T12:21:30;10.80;92.50
13336;DHT22;6737;51.480;11.962;2023-04-06T12:23:59;10.70;92.40
13336;DHT22;6737;51.480;11.962;2023-04-06T12:26:26;10.70;92.00
13336;DHT22;6737;51.480;11.962;2023-04-06T12:28:52;10.70;92.30
13336;DHT22;6737;51.480;11.962;2023-04-06T12:31:20;10.80;94.20
13336;DHT22;6737;51.480;11.962;2023-04-06T12:33:50;10.80;91.80
13336;DHT22;6737;51.480;11.962;2023-04-06T12:36:19;10.80;93.10
13336;DHT22;6737;51.480;11.962;2023-04-06T12:38:47;10.80;93.90
13336;DHT22;6737;51.480;11.962;2023-04-06T12:41:14;10.90;95.30
13336;DHT22;6737;51.480;11.962;2023-04-06T12:43:41;10.90;93.50
13336;DHT22;6737;51.480;11.962;2023-04-06T12:46:07;11.00;92.40
13336;DHT22;6737;51.480;11.962;2023-04-06T12:48:33;11.00;92.90
13336;DHT22;6737;51.480;11.962;2023-04-06T12:51:01;11.00;92.30
13336;DHT22;6737;51.480;11.962;2023-04-06T12:53:27;10.90;92.20
13336;DHT22;6737;51.480;11.962;2023-04-06T12:55:54;10.90;92.20
13336;DHT22;6737;51.480;11.962;2023-04-06T12:58:20;10.90;92.00
13336;DHT22;6737;51.480;11.962;2023-04-06T13:00:50;10.90;92.60
13336;DHT22;6737;51.480;11.962;2023-04-06T13:03:19;10.80;92.70
13336;DHT22;6737;51.480;11.962;2023-04-06T13:05:47;11.00;93.40
13336;DHT22;6737;51.480;11.962;2023-04-06T13:08:14;10.90;94.10
13336;DHT22;6737;51.480;11.962;2023-04-06T13:10:44;11.00;92.50
13336;DHT22;6737;51.480;11.962;2023-04-06T13:13:10;11.10;91.70
13336;DHT22;6737;51.480;11.962;2023-04-06T13:15:36;11.00;92.20
13336;DHT22;6737;51.480;11.962;2023-04-06T13:18:02;10.90;90.70
13336;DHT22;6737;51.480;11.962;2023-04-06T13:20:28;10.90;91.40
13336;DHT22;6737;51.480;11.962;2023-04-06T13:22:54;10.90;90.90
13336;DHT22;6737;51.480;11.962;2023-04-06T13:25:20;10.90;92.90
13336;DHT22;6737;51.480;11.962;2023-04-06T13:27:46;10.90;91.70
13336;DHT22;6737;51.480;11.962;2023-04-06T13:30:14;10.90;92.90
13336;DHT22;6737;51.480;11.962;2023-04-06T13:32:40;10.90;92.90
13336;DHT22;6737;51.480;11.962;2023-04-06T13:35:06;10.90;92.50
13336;DHT22;6737;51.480;11.962;2023-04-06T13:37:33;11.00;91.70
13336;DHT22;6737;51.480;11.962;2023-04-06T13:39:59;11.00;91.60
13336;DHT22;6737;51.480;11.962;2023-04-06T13:42:26;11.00;91.70
13336;DHT22;6737;51.480;11.962;2023-04-06T13:44:52;10.90;92.90
13336;DHT22;6737;51.480;11.962;2023-04-06T13:47:19;10.90;93.30
13336;DHT22;6737;51.480;11.962;2023-04-06T13:49:46;11.00;93.00
13336;DHT22;6737;51.480;11.962;2023-04-06T13:52:13;10.90;93.50
13336;DHT22;6737;51.480;11.962;2023-04-06T13:54:38;10.90;92.00
13336;DHT22;6737;51.480;11.962;2023-04-06T13:57:04;10.90;91.20
13336;DHT22;6737;51.480;11.962;2023-04-06T13:59:34;10.80;91.80
13336;DHT22;6737;51.480;11.962;2023-04-06T14:02:00;10.80;91.50
13336;DHT22;6737;51.480;11.962;2023-04-06T14:04:26;10.80;91.90
13336;DHT22;6737;51.480;11.962;2023-04-06T14:06:52;10.90;91.90
13336;DHT22;6737;51.480;11.962;2023-04-06T14:09:18;10.90;91.40
13336;DHT22;6737;51.480;11.962;2023-04-06T14:11:44;10.90;91.10
13336;DHT22;6737;51.480;11.962;2023-04-06T14:14:09;11.00;90.90
13336;DHT22;6737;51.480;11.962;2023-04-06T14:16:35;10.90;92.00
13336;DHT22;6737;51.480;11.962;2023-04-06T14:19:01;10.90;91.30
13336;DHT22;6737;51.480;11.962;2023-04-06T14:21:28;10.90;90.90
13336;DHT22;6737;51.480;11.962;2023-04-06T14:23:53;10.90;90.60
13336;DHT22;6737;51.480;11.962;2023-04-06T14:26:20;10.90;90.20
13336;DHT22;6737;51.480;11.962;2023-04-06T14:28:46;11.00;90.50
13336;DHT22;6737;51.480;11.962;2023-04-06T14:31:13;11.00;91.40
13336;DHT22;6737;51.480;11.962;2023-04-06T14:33:41;11.10;90.50
13336;DHT22;6737;51.480;11.962;2023-04-06T14:36:07;11.10;89.30
13336;DHT22;6737;51.480;11.962;2023-04-06T14:38:34;11.00;90.40
13336;DHT22;6737;51.480;11.962;2023-04-06T14:41:00;11.00;90.40
13336;DHT22;6737;51.480;11.962;2023-04-06T14:43:26;11.00;90.20
13336;DHT22;6737;51.480;11.962;2023-04-06T14:45:52;11.00;90.10
13336;DHT22;6737;51.480;11.962;2023-04-06T14:48:18;11.00;91.30
13336;DHT22;6737;51.480;11.962;2023-04-06T14:50:57;11.00;91.00
13336;DHT22;6737;51.480;11.962;2023-04-06T14:53:23;11.00;91.20
13336;DHT22;6737;51.480;11.962;2023-04-06T14:55:49;11.20;91.50
13336;DHT22;6737;51.480;11.962;2023-04-06T14:58:19;11.10;90.20
13336;DHT22;6737;51.480;11.962;2023-04-06T15:00:45;11.10;90.60
13336;DHT22;6737;51.480;11.962;2023-04-06T15:03:11;11.10;90.60
13336;DHT22;6737;51.480;11.962;2023-04-06T15:05:36;11.00;90.60
13336;DHT22;6737;51.480;11.962;2023-04-06T15:08:02;11.00;90.70
13336;DHT22;6737;51.480;11.962;2023-04-06T15:10:31;10.90;90.60
13336;DHT22;6737;51.480;11.962;2023-04-06T15:12:57;10.80;90.90
13336;DHT22;6737;51.480;11.962;2023-04-06T15:15:23;10.80;90.40
13336;DHT22;6737;51.480;11.962;2023-04-06T15:17:49;10.80;90.20
13336;DHT22;6737;51.480;11.962;2023-04-06T15:20:15;10.80;90.00
13336;DHT22;6737;51.480;11.962;2023-04-06T15:22:40;10.80;90.40
13336;DHT22;6737;51.480;11.962;2023-04-06T15:25:07;10.80;91.00
13336;DHT22;6737;51.480;11.962;2023-04-06T15:27:32;10.90;90.20
13336;DHT22;6737;51.480;11.962;2023-04-06T15:29:59;10.90;89.30
13336;DHT22;6737;51.480;11.962;2023-04-06T15:32:25;10.90;89.70
13336;DHT22;6737;51.480;11.962;2023-04-06T15:34:53;10.90;90.20
13336;DHT22;6737;51.480;11.962;2023-04-06T15:37:18;10.90;90.70
13336;DHT22;6737;51.480;11.962;2023-04-06T15:39:44;10.90;90.60
13336;DHT22;6737;51.480;11.962;2023-04-06T15:42:10;10.80;90.20
13336;DHT22;6737;51.480;11.962;2023-04-06T15:44:36;10.80;89.80
13336;DHT22;6737;51.480;11.962;2023-04-06T15:47:02;10.80;90.60
13336;DHT22;6737;51.480;11.962;2023-04-06T15:49:28;10.70;90.80
13336;DHT22;6737;51.480;11.962;2023-04-06T15:51:53;10.60;90.20